Aérodrome :
LOGIN :

S'inscrire | Disclaimer

   EN    FR    IT 

 










Légende :    VFR   VFR Marginal   IFR   IFR Intensif   IFR Très Intensif
Visi : 
Plafond : 
>= 8 km
>= 3000ft
5 à 8 km
1000 à 3000 ft
1500m à 5 km
500 à 1000 ft
800 à 1500m
200 à 500 ft
< 800m
< 200 ft
Symboles :   Orages  Brouillard  Fortes neiges  Fortes précipitations  Vent > 20 kt
SIGMETs :   Divers  Orages  Givrage  Turbulence  Onde Orograph.  Cendres Volcan.







- Altitude de l'aérodrome : 160 ft
- Code IATA : LRT
- Voir les cartes d'approche


LFRH - Lorient Lann Bihoue

DERNIER METAR :
  • 200900Z AUTO 28020G31KT 3900 -RA BR OVC006 12/12 Q1006 TEMPO 27030G42KT OVC003

METARs EXPIRÉS :
  • 200830Z AUTO 28019KT 250V310 2900 -RA BR OVC005 12/12 Q1006 TEMPO 27030G42KT 3000 -DZ
  • 200800Z AUTO 28021G34KT 3100 -RA BR BKN003 OVC007 12/12 Q1006 NOSIG
  • 200730Z AUTO 27023G37KT 3900 -RA BR OVC003 12/12 Q1005 NOSIG
  • 200700Z AUTO 27021G32KT 3400 -RA BR OVC003 12/12 Q1005 TEMPO 27030G42KT
  • 200630Z AUTO 27022G34KT 4300 -RA BR OVC003 12/12 Q1005 NOSIG

TAF TAF LFRH
Valide du 20 à 06h jusqu'au 21 à 06h UTC


200500Z 2006/2106 26025G35KT 5000 -RA OVC006
TEMPO 2006/2012 27030G42KT 3000 -DZ OVC003
BECMG 2012/2014 27020G30KT 8000 NSW OVC008
TEMPO 2014/2022 5000 DZ OVC005
BECMG 2022/2024 27010G20KT SCT005 OVC010
BECMG 2100/2102 27015G25KT 2000 DZ OVC002
PROB30
TEMPO 2100/2106 1000 DZ VV///
Pas de NOTAMs connus pour ce terrain.
1 SIGMET publié pour la FIR Brest (LFRR) :
 
Turbulence forte
LFRR SIGMET 2 VALID 200800/201200 LFPW
LFRR BREST FIR/UIR SEV TURB FCST WI N4715 W00015 - N4630 W00015 - N4630 W00130 - N4330 W00145 - N4500 W00800 - N4900 W00800 - N5000 W00215 - N4830 W00030 - N4815 W00315 - N4715 W00015 SFC/FL060 MOV E 15KT NC=



MET'MAP, la Météo Aéronautique d'un coup d'oeil ! - Copyright ORBIFLY Décembre 2007 - Disclaimer

ORBIFLY MET'MAP TEAM :

Programmation & Développement : Alexandra Zaïnal
Conception & Développement : Baudouin d'Aumeries
Co-Programmation & Développement : Marc-Olivier Méhu
Soutien technique & logistique : Manuel Goepfert

Contact : metmap@orbifly.com




SOURCES & CREDITS :

   NOAA